Time;durP1;ratioP1;P1;durP2;ratioP2;P2;SDS_P1;SDS_P2;PMS_P1;PMS_P2;Temp;Humidity;BMP_temperature;BMP_pressure;BME280_temperature;BME280_humidity;BME280_pressure;Samples;Min_cycle;Max_cycle;Signal;HPM_P1;HPM_P2
2022/09/09 00:01:36;;;;;;;;;;;;;;;22.10;59.18;100550.69;5028390;28;5593;-65
2022/09/09 00:04:05;;;;;;;;;;;;;;;22.04;59.30;100545.44;5029001;28;4187;-67
2022/09/09 00:06:35;;;;;;;;;;;;;;;22.08;59.13;100554.25;5030585;28;5313;-66
2022/09/09 00:09:06;;;;;;;;;;;;;;;22.06;58.85;100551.28;5046470;28;4226;-67
2022/09/09 00:11:41;;;;;;;;;;;;;;;22.06;59.10;100554.19;5016420;28;4060;-67
2022/09/09 00:14:28;;;;;;;;;;;;;;;22.03;58.86;100558.38;5014061;28;4519;-71
2022/09/09 00:16:55;;;;;;;;;;;;;;;22.03;58.83;100555.50;5015840;28;5330;-67
2022/09/09 00:19:21;;;;;;;;;;;;;;;22.00;58.80;100553.94;5015102;28;5242;-65
2022/09/09 00:21:53;;;;;;;;;;;;;;;22.00;58.61;100551.06;5013409;28;5320;-64
2022/09/09 00:24:31;;;;;;;;;;;;;;;22.01;58.40;100543.88;5014207;28;5276;-65
2022/09/09 00:27:00;;;;;;;;;;;;;;;21.99;58.26;100546.72;5018883;28;4238;-72
2022/09/09 00:29:35;;;;;;;;;;;;;;;22.01;58.15;100535.22;5016087;28;4210;-67
2022/09/09 00:32:09;;;;;;;;;;;;;;;22.00;58.17;100542.41;5013441;28;4018;-66
2022/09/09 00:34:35;;;;;;;;;;;;;;;21.97;58.29;100538.00;5045425;28;4392;-67
2022/09/09 00:37:01;;;;;;;;;;;;;;;21.97;57.99;100526.47;5013727;28;4205;-66
2022/09/09 00:39:32;;;;;;;;;;;;;;;21.97;57.98;100532.25;5042855;28;5262;-65
2022/09/09 00:42:08;;;;;;;;;;;;;;;21.96;57.90;100536.50;5007935;28;5339;-66
2022/09/09 00:44:36;;;;;;;;;;;;;;;21.95;57.97;100532.91;5013080;28;4184;-66
2022/09/09 00:47:05;;;;;;;;;;;;;;;21.94;57.95;100540.06;5012815;28;4324;-65
2022/09/09 00:49:35;;;;;;;;;;;;;;;21.93;58.03;100532.81;5008050;28;4213;-66
2022/09/09 00:52:21;;;;;;;;;;;;;;;21.93;57.92;100532.09;5006663;28;5428;-65
2022/09/09 00:54:49;;;;;;;;;;;;;;;21.89;57.75;100531.94;5044159;28;6554;-65
2022/09/09 00:57:31;;;;;;;;;;;;;;;21.91;57.92;100529.13;5012117;28;4210;-65
2022/09/09 01:00:17;;;;;;;;;;;;;;;21.92;57.94;100530.59;5012409;28;5417;-65
2022/09/09 01:03:07;;;;;;;;;;;;;;;21.89;57.86;100534.81;5017529;28;4245;-65
2022/09/09 01:05:52;;;;;;;;;;;;;;;21.88;57.68;100542.00;4993070;28;4034;-71
2022/09/09 01:08:33;;;;;;;;;;;;;;;21.88;57.99;100542.75;5027099;28;6742;-66
2022/09/09 01:10:59;;;;;;;;;;;;;;;21.85;57.92;100544.09;5043196;28;6235;-73
2022/09/09 01:13:31;;;;;;;;;;;;;;;21.88;58.01;100553.53;5041508;28;4499;-69
2022/09/09 01:16:02;;;;;;;;;;;;;;;21.87;57.75;100540.50;5046745;28;5612;-65
2022/09/09 01:18:34;;;;;;;;;;;;;;;21.84;58.05;100536.81;5033490;28;4248;-65
2022/09/09 01:21:04;;;;;;;;;;;;;;;21.84;58.12;100547.63;5046310;28;4334;-65
2022/09/09 01:23:34;;;;;;;;;;;;;;;21.82;58.02;100533.13;5043034;28;4291;-66
2022/09/09 01:26:18;;;;;;;;;;;;;;;21.84;58.17;100541.84;5022836;28;4202;-71
2022/09/09 01:28:45;;;;;;;;;;;;;;;21.82;58.05;100538.91;5027765;28;5344;-65
2022/09/09 01:31:18;;;;;;;;;;;;;;;21.81;58.23;100532.41;5029412;28;4326;-65
2022/09/09 01:33:46;;;;;;;;;;;;;;;21.82;57.77;100533.88;5037034;28;4158;-65
2022/09/09 01:36:33;;;;;;;;;;;;;;;21.82;57.76;100544.66;5024897;28;5547;-66
2022/09/09 01:38:59;;;;;;;;;;;;;;;21.81;58.03;100543.94;5043447;28;4227;-72
2022/09/09 01:41:27;;;;;;;;;;;;;;;21.79;57.97;100543.84;5035088;28;4246;-67
2022/09/09 01:44:01;;;;;;;;;;;;;;;21.80;58.17;100548.22;5016714;28;5464;-67
2022/09/09 01:46:29;;;;;;;;;;;;;;;21.80;57.93;100541.72;5021894;28;4207;-67
2022/09/09 01:48:56;;;;;;;;;;;;;;;21.80;58.11;100541.72;5006114;28;4362;-66
2022/09/09 01:51:22;;;;;;;;;;;;;;;21.79;58.09;100546.00;5028715;28;5351;-65
2022/09/09 01:53:49;;;;;;;;;;;;;;;21.79;57.88;100540.25;5025392;28;5572;-65
2022/09/09 01:56:36;;;;;;;;;;;;;;;21.79;57.75;100537.38;5006925;28;5191;-70
2022/09/09 01:59:23;;;;;;;;;;;;;;;21.78;58.19;100538.75;5006648;28;4223;-65
2022/09/09 02:02:13;;;;;;;;;;;;;;;21.76;58.10;100536.53;5024575;28;5519;-65
2022/09/09 02:04:46;;;;;;;;;;;;;;;21.75;58.09;100544.44;5009778;28;5351;-65
2022/09/09 02:07:28;;;;;;;;;;;;;;;21.73;58.00;100540.75;5042450;28;4500;-67
2022/09/09 02:10:00;;;;;;;;;;;;;;;21.72;58.01;100540.03;5033281;28;4183;-71
2022/09/09 02:12:27;;;;;;;;;;;;;;;21.72;58.00;100531.38;5028065;28;4278;-68
2022/09/09 02:14:56;;;;;;;;;;;;;;;21.74;58.05;100539.38;5029502;28;4362;-72
2022/09/09 02:17:26;;;;;;;;;;;;;;;21.73;57.83;100543.63;5032132;28;4255;-67
2022/09/09 02:20:08;;;;;;;;;;;;;;;21.73;57.88;100540.75;5037117;28;5463;-67
2022/09/09 02:23:02;;;;;;;;;;;;;;;21.71;58.06;100544.28;5039686;28;4377;-67
2022/09/09 02:25:30;;;;;;;;;;;;;;;21.72;57.79;100542.91;5039437;28;5452;-66
2022/09/09 02:28:13;;;;;;;;;;;;;;;21.69;57.97;100544.25;5049994;28;5563;-67
2022/09/09 02:30:40;;;;;;;;;;;;;;;21.71;57.80;100541.41;5023389;28;5207;-71
2022/09/09 02:33:07;;;;;;;;;;;;;;;21.71;57.97;100546.44;5047705;28;4272;-65
2022/09/09 02:35:41;;;;;;;;;;;;;;;21.69;57.79;100547.13;5045756;28;4605;-70
2022/09/09 02:38:09;;;;;;;;;;;;;;;21.70;57.97;100544.97;5049926;28;5334;-66
2022/09/09 02:40:37;;;;;;;;;;;;;;;21.67;58.09;100549.16;5032227;28;5479;-67
2022/09/09 02:43:04;;;;;;;;;;;;;;;21.66;58.21;100536.19;5040365;28;5589;-65
2022/09/09 02:45:34;;;;;;;;;;;;;;;21.65;58.02;100544.09;5050106;28;4571;-65
2022/09/09 02:48:16;;;;;;;;;;;;;;;21.65;58.08;100541.22;5034183;28;5355;-65
2022/09/09 02:50:47;;;;;;;;;;;;;;;21.65;57.76;100546.97;5030958;28;4344;-63
2022/09/09 02:53:18;;;;;;;;;;;;;;;21.64;58.00;100542.59;5040466;28;5434;-63
2022/09/09 02:55:55;;;;;;;;;;;;;;;21.65;57.55;100546.25;5014138;28;4348;-71
2022/09/09 02:58:22;;;;;;;;;;;;;;;21.65;57.75;100549.84;5037803;28;4196;-67
2022/09/09 03:01:02;;;;;;;;;;;;;;;21.63;57.97;100546.16;5031244;28;5266;-67
2022/09/09 03:03:30;;;;;;;;;;;;;;;21.62;57.91;100539.63;5047436;28;3966;-66
2022/09/09 03:05:57;;;;;;;;;;;;;;;21.61;57.78;100548.97;5030524;28;5260;-70
2022/09/09 03:08:27;;;;;;;;;;;;;;;21.62;57.58;100553.31;5039867;28;4262;-67
2022/09/09 03:10:55;;;;;;;;;;;;;;;21.62;57.54;100567.72;5031099;28;5267;-67
2022/09/09 03:13:25;;;;;;;;;;;;;;;21.61;57.59;100558.34;5049598;28;4216;-66
2022/09/09 03:15:51;;;;;;;;;;;;;;;21.61;57.58;100564.09;5046310;28;5325;-65
2022/09/09 03:18:19;;;;;;;;;;;;;;;21.58;57.68;100565.44;5048290;28;5389;-67
2022/09/09 03:20:49;;;;;;;;;;;;;;;21.57;57.62;100566.09;5044305;28;4252;-67
2022/09/09 03:23:16;;;;;;;;;;;;;;;21.54;57.56;100568.16;5034935;28;5489;-65
2022/09/09 03:25:48;;;;;;;;;;;;;;;21.50;57.79;100568.75;5037192;28;4228;-63
2022/09/09 03:28:18;;;;;;;;;;;;;;;21.51;57.80;100566.63;5040428;28;5301;-67
2022/09/09 03:30:45;;;;;;;;;;;;;;;21.52;57.52;100571.72;5022208;28;5540;-62
2022/09/09 03:33:12;;;;;;;;;;;;;;;21.53;57.61;100572.44;5022045;28;4236;-61
2022/09/09 03:35:39;;;;;;;;;;;;;;;21.46;57.90;100579.38;4998923;28;4186;-62
2022/09/09 03:38:06;;;;;;;;;;;;;;;21.42;58.33;100574.22;5025243;28;4178;-62
2022/09/09 03:40:33;;;;;;;;;;;;;;;21.42;57.90;100573.50;5006657;28;4344;-63
2022/09/09 03:43:00;;;;;;;;;;;;;;;21.42;57.96;100567.72;5016326;28;4231;-62
2022/09/09 03:45:27;;;;;;;;;;;;;;;21.39;58.17;100571.91;5028371;28;4256;-67
2022/09/09 03:47:54;;;;;;;;;;;;;;;21.40;58.02;100564.75;5011911;28;4307;-64
2022/09/09 03:50:20;;;;;;;;;;;;;;;21.39;57.98;100571.91;5012812;28;5261;-61
2022/09/09 03:52:48;;;;;;;;;;;;;;;21.38;57.81;100579.81;5018236;28;4210;-61
2022/09/09 03:55:19;;;;;;;;;;;;;;;21.37;57.73;100568.94;5026426;28;4244;-69
2022/09/09 03:57:45;;;;;;;;;;;;;;;21.38;57.70;100564.66;5014181;28;5201;-63
2022/09/09 04:00:12;;;;;;;;;;;;;;;21.36;57.60;100570.34;5048201;28;4390;-68
2022/09/09 04:02:43;;;;;;;;;;;;;;;21.34;57.93;100568.84;5031251;28;4319;-69
2022/09/09 04:05:14;;;;;;;;;;;;;;;21.32;58.14;100568.78;5036032;28;5055;-69
2022/09/09 04:07:42;;;;;;;;;;;;;;;21.33;57.90;100566.66;5036032;28;4325;-70
2022/09/09 04:10:08;;;;;;;;;;;;;;;21.32;57.51;100557.25;5036002;28;5226;-61
2022/09/09 04:12:37;;;;;;;;;;;;;;;21.23;58.05;100558.34;5050706;28;4178;-61
2022/09/09 04:15:03;;;;;;;;;;;;;;;20.99;58.47;100563.19;5052391;28;4174;-61
2022/09/09 04:17:30;;;;;;;;;;;;;;;21.07;58.20;100564.25;5038462;28;4220;-61
2022/09/09 04:19:57;;;;;;;;;;;;;;;21.11;57.89;100564.38;5011865;28;4304;-61
2022/09/09 04:22:23;;;;;;;;;;;;;;;21.13;57.92;100573.09;5015560;28;5428;-61
2022/09/09 04:24:50;;;;;;;;;;;;;;;21.06;58.05;100585.06;5028688;28;4170;-61
2022/09/09 04:27:18;;;;;;;;;;;;;;;21.14;58.05;100570.97;5031664;28;4289;-61
2022/09/09 04:29:44;;;;;;;;;;;;;;;21.13;58.32;100578.13;5036522;28;4439;-61
2022/09/09 04:32:12;;;;;;;;;;;;;;;21.08;58.50;100576.50;5043211;28;5375;-61
2022/09/09 04:34:41;;;;;;;;;;;;;;;21.07;58.54;100570.00;5020779;28;6420;-61
2022/09/09 04:37:08;;;;;;;;;;;;;;;20.99;58.90;100583.34;5047765;28;5421;-62
2022/09/09 04:39:35;;;;;;;;;;;;;;;20.89;58.87;100584.41;5043364;28;4192;-61
2022/09/09 04:42:03;;;;;;;;;;;;;;;20.90;59.15;100588.75;5041638;28;4176;-60
2022/09/09 04:44:30;;;;;;;;;;;;;;;20.85;59.26;100584.25;5029125;28;4088;-60
2022/09/09 04:46:56;;;;;;;;;;;;;;;20.87;58.80;100580.72;5021492;28;5240;-61
2022/09/09 04:49:23;;;;;;;;;;;;;;;20.12;61.04;100581.94;5032518;28;4163;-60
2022/09/09 04:51:49;;;;;;;;;;;;;;;19.77;62.14;100594.03;5038176;28;4943;-60
2022/09/09 04:54:16;;;;;;;;;;;;;;;19.52;63.47;100601.56;5019622;28;4221;-61
2022/09/09 04:56:44;;;;;;;;;;;;;;;19.65;63.14;100602.81;5028037;28;5269;-61
2022/09/09 04:59:11;;;;;;;;;;;;;;;19.54;63.47;100607.38;5028690;28;4189;-61
2022/09/09 05:01:47;;;;;;;;;;;;;;;19.25;64.35;100605.31;5020917;28;4232;-60
2022/09/09 05:04:15;;;;;;;;;;;;;;;19.24;64.54;100610.34;5024855;28;4409;-61
2022/09/09 05:06:42;;;;;;;;;;;;;;;19.50;64.08;100606.47;5049094;28;4225;-60
2022/09/09 05:09:09;;;;;;;;;;;;;;;19.41;64.35;100606.06;5047360;28;5448;-66
2022/09/09 05:11:36;;;;;;;;;;;;;;;19.42;64.26;100603.94;5035347;28;4254;-61
2022/09/09 05:14:29;;;;;;;;;;;;;;;19.34;64.99;100600.72;5028891;28;4173;-70
2022/09/09 05:16:58;;;;;;;;;;;;;;;19.33;65.08;100594.22;5042260;28;5459;-62
2022/09/09 05:19:24;;;;;;;;;;;;;;;19.12;65.64;100595.41;5026795;28;4287;-63
2022/09/09 05:21:52;;;;;;;;;;;;;;;19.10;65.74;100598.16;5025853;28;4140;-68
2022/09/09 05:24:24;;;;;;;;;;;;;;;19.24;65.51;100590.25;5038422;28;5468;-61
2022/09/09 05:26:53;;;;;;;;;;;;;;;19.15;65.89;100591.25;5029482;28;4182;-63
2022/09/09 05:29:20;;;;;;;;;;;;;;;19.24;65.85;100598.09;5030086;28;4895;-62
2022/09/09 05:31:46;;;;;;;;;;;;;;;19.20;66.12;100581.44;5035344;28;4187;-69
2022/09/09 05:34:16;;;;;;;;;;;;;;;19.20;66.31;100595.78;5046110;28;4163;-61
2022/09/09 05:36:42;;;;;;;;;;;;;;;19.08;66.80;100592.34;5032804;28;4162;-67
2022/09/09 05:39:09;;;;;;;;;;;;;;;19.10;66.85;100609.66;5044128;28;4227;-68
2022/09/09 05:41:35;;;;;;;;;;;;;;;19.02;67.21;100603.53;5032676;28;4607;-68
2022/09/09 05:44:03;;;;;;;;;;;;;;;19.02;67.37;100607.13;5031675;28;4047;-67
2022/09/09 05:46:34;;;;;;;;;;;;;;;19.02;67.41;100604.25;5030482;28;5290;-64
2022/09/09 05:49:01;;;;;;;;;;;;;;;19.11;67.43;100601.78;5027202;28;4269;-69
2022/09/09 05:51:30;;;;;;;;;;;;;;;19.37;67.00;100610.91;5044655;28;4242;-67
2022/09/09 05:53:59;;;;;;;;;;;;;;;19.82;65.40;100612.97;5028188;28;4261;-59
2022/09/09 05:56:28;;;;;;;;;;;;;;;19.94;64.90;100613.50;5028765;28;5291;-59
2022/09/09 05:58:56;;;;;;;;;;;;;;;20.06;64.24;100619.03;5046126;28;4253;-59
2022/09/09 06:01:26;;;;;;;;;;;;;;;20.14;64.14;100619.41;5030116;28;4172;-62
2022/09/09 06:03:53;;;;;;;;;;;;;;;20.26;63.43;100624.94;5018219;28;4095;-60
2022/09/09 06:06:22;;;;;;;;;;;;;;;20.48;62.71;100622.28;5013798;28;3954;-66
2022/09/09 06:08:50;;;;;;;;;;;;;;;20.61;62.23;100614.91;5042247;28;3943;-61
2022/09/09 06:11:17;;;;;;;;;;;;;;;20.72;62.05;100631.19;5048892;28;3963;-61
2022/09/09 06:13:44;;;;;;;;;;;;;;;20.78;61.74;100628.56;5021583;28;4077;-66
2022/09/09 06:16:11;;;;;;;;;;;;;;;20.84;61.51;100639.56;5013787;28;4051;-61
2022/09/09 06:18:39;;;;;;;;;;;;;;;20.89;61.28;100633.34;5015673;28;3964;-66
2022/09/09 06:21:06;;;;;;;;;;;;;;;20.92;61.10;100639.91;5042710;28;4114;-62
2022/09/09 06:23:34;;;;;;;;;;;;;;;20.95;60.99;100634.97;5027122;28;4081;-61
2022/09/09 06:26:02;;;;;;;;;;;;;;;20.97;60.93;100638.69;5035641;28;4081;-62
2022/09/09 06:28:29;;;;;;;;;;;;;;;20.99;60.62;100638.03;5017291;28;3934;-60
2022/09/09 06:30:59;;;;;;;;;;;;;;;21.01;60.57;100641.00;5031586;28;3953;-68
2022/09/09 06:33:27;;;;;;;;;;;;;;;21.03;60.75;100638.94;5049999;28;3994;-61
2022/09/09 06:35:54;;;;;;;;;;;;;;;21.05;60.66;100649.78;5031214;28;4178;-68
2022/09/09 06:38:22;;;;;;;;;;;;;;;21.07;60.65;100644.09;5032663;28;4218;-61
2022/09/09 06:40:55;;;;;;;;;;;;;;;21.09;60.67;100652.81;5027564;28;4198;-62
2022/09/09 06:43:23;;;;;;;;;;;;;;;21.09;60.44;100644.19;5039915;28;4082;-62
2022/09/09 06:45:56;;;;;;;;;;;;;;;21.12;60.21;100640.00;5030427;28;5241;-68
2022/09/09 06:48:23;;;;;;;;;;;;;;;21.15;60.31;100647.31;5027255;28;5249;-61
2022/09/09 06:50:49;;;;;;;;;;;;;;;21.17;60.52;100643.78;5037936;28;4630;-61
2022/09/09 06:53:18;;;;;;;;;;;;;;;21.17;60.41;100644.50;5038314;28;4183;-60
2022/09/09 06:55:45;;;;;;;;;;;;;;;21.19;60.53;100643.84;5025411;28;4140;-67
2022/09/09 06:58:12;;;;;;;;;;;;;;;21.20;60.17;100634.56;5027668;28;5266;-60
2022/09/09 07:00:39;;;;;;;;;;;;;;;21.21;60.38;100644.69;5042763;28;5239;-68
2022/09/09 07:03:06;;;;;;;;;;;;;;;21.23;60.45;100636.09;5022595;28;4163;-62
2022/09/09 07:05:32;;;;;;;;;;;;;;;21.25;60.23;100636.19;5020758;28;4180;-68
2022/09/09 07:07:58;;;;;;;;;;;;;;;21.25;60.20;100627.53;5027484;28;5226;-62
2022/09/09 07:10:25;;;;;;;;;;;;;;;21.23;60.42;100632.50;5034191;28;4255;-66
2022/09/09 07:12:52;;;;;;;;;;;;;;;20.96;61.51;100633.56;5042472;28;4475;-64
2022/09/09 07:15:22;;;;;;;;;;;;;;;21.06;61.63;100643.38;5026692;28;4334;-66
2022/09/09 07:17:49;;;;;;;;;;;;;;;21.16;61.13;100636.53;5036009;28;4235;-66
2022/09/09 07:20:15;;;;;;;;;;;;;;;21.20;61.14;100640.31;5033971;28;4122;-65
2022/09/09 07:22:42;;;;;;;;;;;;;;;21.19;61.23;100635.97;5041494;28;4066;-65
2022/09/09 07:25:09;;;;;;;;;;;;;;;21.21;61.48;100646.81;5037031;28;4301;-64
2022/09/09 07:27:36;;;;;;;;;;;;;;;21.21;61.40;100636.03;5033434;28;4180;-68
2022/09/09 07:30:04;;;;;;;;;;;;;;;21.30;60.67;100637.06;5032654;28;5283;-66
2022/09/09 07:32:32;;;;;;;;;;;;;;;21.38;60.99;100639.56;5041194;28;4232;-64
2022/09/09 07:34:59;;;;;;;;;;;;;;;21.30;61.64;100648.59;5028207;28;4246;-65
2022/09/09 07:37:26;;;;;;;;;;;;;;;21.21;62.35;100653.31;5043358;28;4263;-65
2022/09/09 07:39:53;;;;;;;;;;;;;;;21.17;62.78;100656.03;5022474;28;4324;-64
2022/09/09 07:42:19;;;;;;;;;;;;;;;21.18;62.48;100660.38;5049311;28;4456;-64
2022/09/09 07:44:46;;;;;;;;;;;;;;;21.26;64.65;100659.97;5045943;28;4171;-65
2022/09/09 07:47:14;;;;;;;;;;;;;;;21.52;64.60;100651.66;5019803;28;6292;-64
2022/09/09 07:49:46;;;;;;;;;;;;;;;21.65;63.81;100652.84;5046190;28;4036;-64
2022/09/09 07:52:14;;;;;;;;;;;;;;;21.65;62.76;100653.59;5050414;28;4356;-64
2022/09/09 07:54:47;;;;;;;;;;;;;;;22.46;61.62;100657.94;5033673;28;4184;-65
2022/09/09 07:57:15;;;;;;;;;;;;;;;22.73;60.43;100661.75;5017329;28;6396;-63
2022/09/09 07:59:41;;;;;;;;;;;;;;;22.79;59.53;100662.69;5037722;28;4417;-64
2022/09/09 08:02:09;;;;;;;;;;;;;;;22.75;59.56;100659.66;5016632;28;4035;-63
2022/09/09 08:04:35;;;;;;;;;;;;;;;22.77;59.24;100664.78;5048708;28;4302;-63
2022/09/09 08:07:03;;;;;;;;;;;;;;;22.43;59.68;100664.34;5012649;28;4210;-65
2022/09/09 08:09:34;;;;;;;;;;;;;;;22.50;60.61;100666.00;5015870;28;4317;-65
2022/09/09 08:12:08;;;;;;;;;;;;;;;22.62;59.44;100668.56;5013871;28;4155;-64
2022/09/09 08:14:35;;;;;;;;;;;;;;;22.76;59.31;100663.28;5010104;28;5283;-67
2022/09/09 08:17:01;;;;;;;;;;;;;;;22.79;59.08;100673.47;5015517;28;4293;-66
2022/09/09 08:19:32;;;;;;;;;;;;;;;22.87;59.07;100667.97;5018833;28;5513;-68
2022/09/09 08:22:01;;;;;;;;;;;;;;;22.82;59.26;100680.81;5017359;28;4422;-68
2022/09/09 08:24:29;;;;;;;;;;;;;;;22.88;59.17;100668.72;5046936;28;4254;-68
2022/09/09 08:26:56;;;;;;;;;;;;;;;22.85;59.46;100665.03;5037678;28;4172;-67
2022/09/09 08:29:23;;;;;;;;;;;;;;;22.86;59.76;100672.28;5033436;28;4075;-66
2022/09/09 08:31:52;;;;;;;;;;;;;;;22.88;59.45;100674.47;5034893;28;4224;-66
2022/09/09 08:34:19;;;;;;;;;;;;;;;22.84;59.81;100675.09;5017152;28;4230;-64
2022/09/09 08:36:47;;;;;;;;;;;;;;;22.86;59.89;100672.28;5002832;28;4166;-64
2022/09/09 08:39:15;;;;;;;;;;;;;;;22.82;60.17;100672.16;5011362;28;4280;-67
2022/09/09 08:42:06;;;;;;;;;;;;;;;22.93;59.46;100679.75;5011654;28;4343;-64
2022/09/09 08:44:36;;;;;;;;;;;;;;;23.00;59.07;100667.00;5030483;28;4161;-66
2022/09/09 08:47:11;;;;;;;;;;;;;;;22.83;59.70;100667.09;5045309;28;4300;-65
2022/09/09 08:49:46;;;;;;;;;;;;;;;23.08;59.19;100675.19;5038015;28;4543;-66
2022/09/09 08:52:15;;;;;;;;;;;;;;;22.97;58.97;100676.97;5040771;28;4289;-65
2022/09/09 08:54:42;;;;;;;;;;;;;;;22.93;59.36;100679.75;5028314;28;5459;-65
2022/09/09 08:57:20;;;;;;;;;;;;;;;22.94;59.54;100684.09;5043073;28;4165;-65
2022/09/09 08:59:46;;;;;;;;;;;;;;;22.94;59.14;100686.25;5017204;28;4252;-66
2022/09/09 09:02:17;;;;;;;;;;;;;;;22.88;59.54;100686.75;5031828;28;6111;-64
2022/09/09 09:04:58;;;;;;;;;;;;;;;23.01;59.67;100687.94;5012470;28;4047;-64
2022/09/09 09:07:32;;;;;;;;;;;;;;;22.94;59.53;100686.25;5032586;28;4151;-62
2022/09/09 09:10:02;;;;;;;;;;;;;;;22.99;59.29;100677.06;5025888;28;4217;-61
2022/09/09 09:12:35;;;;;;;;;;;;;;;23.12;59.04;100686.13;5029373;28;4221;-66
2022/09/09 09:15:01;;;;;;;;;;;;;;;23.06;58.73;100678.00;5031342;28;5450;-67
2022/09/09 09:17:31;;;;;;;;;;;;;;;22.97;59.29;100687.78;5047456;28;4243;-63
2022/09/09 09:19:57;;;;;;;;;;;;;;;23.07;59.00;100682.38;5031005;28;5160;-64
2022/09/09 09:22:37;;;;;;;;;;;;;;;23.08;59.01;100686.00;5029747;28;4083;-64
2022/09/09 09:25:11;;;;;;;;;;;;;;;23.12;58.96;100686.13;5047024;28;4052;-64
2022/09/09 09:27:51;;;;;;;;;;;;;;;23.14;58.68;100686.19;5048432;28;4207;-64
2022/09/09 09:30:19;;;;;;;;;;;;;;;23.07;58.68;100678.75;5031935;28;4299;-62
2022/09/09 09:33:05;;;;;;;;;;;;;;;22.93;59.22;100688.41;5032620;28;5241;-67
2022/09/09 09:35:32;;;;;;;;;;;;;;;22.51;60.42;100694.19;5033166;28;4492;-65
2022/09/09 09:38:22;;;;;;;;;;;;;;;22.30;60.38;100686.97;5045969;28;4297;-64
2022/09/09 09:41:09;;;;;;;;;;;;;;;22.17;60.90;100687.91;5025821;28;4197;-65
2022/09/09 09:44:13;;;;;;;;;;;;;;;22.42;60.76;100678.00;5028315;28;5758;-63
2022/09/09 09:47:14;;;;;;;;;;;;;;;22.34;60.30;100666.19;5013763;28;4907;-62
2022/09/09 09:50:17;;;;;;;;;;;;;;;22.32;60.65;100680.53;5028785;28;4131;-62
2022/09/09 09:52:52;;;;;;;;;;;;;;;22.68;59.37;100674.56;5035241;28;4303;-64
2022/09/09 09:55:19;;;;;;;;;;;;;;;22.59;59.07;100673.53;5021818;28;4259;-64
2022/09/09 09:57:45;;;;;;;;;;;;;;;22.57;59.42;100679.97;5038439;28;5333;-66
2022/09/09 10:00:17;;;;;;;;;;;;;;;22.55;59.59;100679.91;5034201;28;4054;-65
2022/09/09 10:02:52;;;;;;;;;;;;;;;22.62;59.18;100677.97;5046468;28;4265;-64
2022/09/09 10:05:24;;;;;;;;;;;;;;;22.62;59.25;100671.47;5035510;28;4160;-65
2022/09/09 10:08:16;;;;;;;;;;;;;;;22.57;59.48;100674.19;5031629;28;5443;-64
2022/09/09 10:10:48;;;;;;;;;;;;;;;22.55;59.86;100691.44;5034200;28;4244;-63
2022/09/09 10:13:17;;;;;;;;;;;;;;;22.51;59.38;100676.88;5020119;28;4188;-63
2022/09/09 10:15:51;;;;;;;;;;;;;;;22.50;59.53;100689.84;5026251;28;4254;-71
2022/09/09 10:18:25;;;;;;;;;;;;;;;22.51;59.54;100691.31;5039841;28;4257;-66
2022/09/09 10:20:59;;;;;;;;;;;;;;;22.80;58.77;100687.25;5037934;28;4971;-65
2022/09/09 10:23:49;;;;;;;;;;;;;;;22.85;59.23;100682.34;5028655;28;5279;-64
2022/09/09 10:26:24;;;;;;;;;;;;;;;22.84;58.97;100669.34;5029847;28;4209;-64
2022/09/09 10:28:59;;;;;;;;;;;;;;;22.88;58.65;100675.22;5018474;28;4239;-64
2022/09/09 10:31:38;;;;;;;;;;;;;;;22.92;58.84;100681.13;5015120;28;4242;-62
2022/09/09 10:34:20;;;;;;;;;;;;;;;22.87;58.29;100679.53;5038260;28;5577;-65
2022/09/09 10:36:48;;;;;;;;;;;;;;;22.78;58.64;100669.84;5011692;28;4364;-66
2022/09/09 10:39:18;;;;;;;;;;;;;;;22.76;58.65;100663.28;5006771;28;4173;-66
2022/09/09 10:41:48;;;;;;;;;;;;;;;22.61;59.31;100667.09;5007236;28;4670;-64
2022/09/09 10:44:44;;;;;;;;;;;;;;;22.68;59.02;100668.78;5023663;28;4213;-67
2022/09/09 10:47:10;;;;;;;;;;;;;;;22.75;58.13;100674.09;5012452;28;5282;-65
2022/09/09 10:49:51;;;;;;;;;;;;;;;22.75;58.34;100679.13;5033279;28;4256;-68
2022/09/09 10:52:21;;;;;;;;;;;;;;;22.65;58.80;100670.84;5036228;28;6513;-66
2022/09/09 10:54:54;;;;;;;;;;;;;;;22.63;58.98;100678.69;5036095;28;4193;-65
2022/09/09 10:57:31;;;;;;;;;;;;;;;22.68;58.81;100677.44;5034186;28;4383;-64
2022/09/09 10:59:59;;;;;;;;;;;;;;;22.74;58.53;100681.25;5037699;28;5455;-65
2022/09/09 11:02:29;;;;;;;;;;;;;;;22.86;58.16;100672.28;5043357;28;5141;-63
2022/09/09 11:05:03;;;;;;;;;;;;;;;22.72;59.11;100689.13;5032204;28;4224;-64
2022/09/09 11:07:33;;;;;;;;;;;;;;;22.85;58.90;100676.56;5033817;28;4236;-64
2022/09/09 11:10:03;;;;;;;;;;;;;;;22.88;58.92;100671.59;5044222;28;4168;-64
2022/09/09 11:12:29;;;;;;;;;;;;;;;22.81;58.95;100673.53;5046676;28;4185;-64
2022/09/09 11:14:57;;;;;;;;;;;;;;;22.66;59.23;100671.59;5034307;28;4221;-59
2022/09/09 11:17:30;;;;;;;;;;;;;;;22.72;59.39;100680.44;5045142;28;6433;-63
2022/09/09 11:19:57;;;;;;;;;;;;;;;22.75;59.16;100679.13;5024125;28;4205;-62
2022/09/09 11:22:29;;;;;;;;;;;;;;;22.74;59.15;100671.88;5035231;28;4247;-63
2022/09/09 11:25:10;;;;;;;;;;;;;;;22.73;59.33;100676.19;5032606;28;4169;-62
2022/09/09 11:27:55;;;;;;;;;;;;;;;22.69;59.30;100664.47;5037572;28;5492;-62
2022/09/09 11:30:22;;;;;;;;;;;;;;;22.70;59.42;100678.25;5031322;28;4184;-63
2022/09/09 11:33:23;;;;;;;;;;;;;;;22.70;59.33;100678.25;5032357;28;4279;-61
2022/09/09 11:36:05;;;;;;;;;;;;;;;22.64;59.05;100669.38;5046526;28;4251;-62
2022/09/09 11:38:40;;;;;;;;;;;;;;;22.63;59.14;100675.81;5025130;28;4245;-63
2022/09/09 11:41:07;;;;;;;;;;;;;;;22.73;59.23;100664.63;5042485;28;5285;-64
2022/09/09 11:43:37;;;;;;;;;;;;;;;23.02;59.10;100659.81;5039221;28;4211;-63
2022/09/09 11:46:03;;;;;;;;;;;;;;;23.12;58.61;100666.66;5043706;28;4200;-66
2022/09/09 11:48:33;;;;;;;;;;;;;;;23.19;58.24;100661.81;5032762;28;5152;-66
2022/09/09 11:51:04;;;;;;;;;;;;;;;23.13;58.39;100655.81;5031751;28;5408;-64
2022/09/09 11:53:31;;;;;;;;;;;;;;;23.07;57.81;100655.66;5030849;28;5252;-64
2022/09/09 11:56:01;;;;;;;;;;;;;;;23.02;58.17;100648.25;5012195;28;4188;-64
2022/09/09 11:58:28;;;;;;;;;;;;;;;23.26;57.58;100643.25;5014190;28;5326;-65
2022/09/09 12:00:54;;;;;;;;;;;;;;;23.18;57.76;100648.75;5007554;28;4280;-66
2022/09/09 12:03:33;;;;;;;;;;;;;;;23.33;57.59;100650.69;5001224;28;4185;-65
2022/09/09 12:06:00;;;;;;;;;;;;;;;23.42;57.58;100654.56;5012288;28;4305;-65
2022/09/09 12:08:27;;;;;;;;;;;;;;;23.44;57.59;100645.22;5046379;28;4227;-65
2022/09/09 12:10:55;;;;;;;;;;;;;;;23.58;57.13;100643.50;5013787;28;4218;-62
2022/09/09 12:13:23;;;;;;;;;;;;;;;23.55;56.73;100644.13;5020107;28;5259;-63
2022/09/09 12:15:50;;;;;;;;;;;;;;;23.64;56.76;100645.84;5012948;28;4218;-65
2022/09/09 12:18:22;;;;;;;;;;;;;;;23.39;57.05;100645.09;5016590;28;4230;-64
2022/09/09 12:20:57;;;;;;;;;;;;;;;23.27;57.27;100644.72;5013485;28;5168;-65
2022/09/09 12:23:35;;;;;;;;;;;;;;;23.46;56.54;100636.63;5016188;28;4073;-63
2022/09/09 12:26:18;;;;;;;;;;;;;;;23.52;56.44;100639.69;5048236;28;4281;-65
2022/09/09 12:29:00;;;;;;;;;;;;;;;23.33;57.11;100636.25;5042956;28;4226;-64
2022/09/09 12:31:30;;;;;;;;;;;;;;;23.23;57.43;100638.84;5023268;28;6804;-63
2022/09/09 12:34:02;;;;;;;;;;;;;;;23.18;57.28;100631.44;5048228;28;5260;-63
2022/09/09 12:36:29;;;;;;;;;;;;;;;23.19;57.49;100621.38;5030907;28;4109;-69
2022/09/09 12:38:56;;;;;;;;;;;;;;;23.11;57.58;100618.22;5029902;28;4272;-57
2022/09/09 12:41:24;;;;;;;;;;;;;;;23.07;57.57;100612.34;5032493;28;4194;-57
2022/09/09 12:43:50;;;;;;;;;;;;;;;23.03;57.60;100620.88;5034629;28;5339;-57
2022/09/09 12:46:21;;;;;;;;;;;;;;;23.02;57.82;100625.91;5035364;28;4215;-57
2022/09/09 12:48:47;;;;;;;;;;;;;;;22.98;57.85;100625.75;5051199;28;4227;-60
2022/09/09 12:51:17;;;;;;;;;;;;;;;22.99;57.66;100630.84;5034888;28;4194;-57
2022/09/09 12:53:45;;;;;;;;;;;;;;;22.96;57.61;100622.78;5046306;28;4137;-57
2022/09/09 12:56:21;;;;;;;;;;;;;;;22.96;57.44;100626.41;5045255;28;4491;-57
2022/09/09 12:58:48;;;;;;;;;;;;;;;22.96;57.70;100635.06;5023396;28;4273;-61
2022/09/09 13:01:24;;;;;;;;;;;;;;;22.96;57.43;100640.13;5036047;28;4131;-57
2022/09/09 13:03:51;;;;;;;;;;;;;;;22.95;57.61;100633.59;5027357;28;5220;-57
2022/09/09 13:06:19;;;;;;;;;;;;;;;22.96;57.63;100640.13;5024522;28;4182;-60
2022/09/09 13:08:45;;;;;;;;;;;;;;;22.98;57.66;100643.06;5046487;28;5339;-54